createdAt,value
2022-10-11T00:00:29.393Z,58.80
2022-10-11T00:03:39.530Z,58.90
2022-10-11T00:06:47.713Z,58.90
2022-10-11T00:09:55.488Z,58.70
2022-10-11T00:13:02.947Z,58.50
2022-10-11T00:16:12.223Z,58.60
2022-10-11T00:19:22.563Z,58.40
2022-10-11T00:22:29.935Z,58.20
2022-10-11T00:25:37.355Z,58.70
2022-10-11T00:28:45.787Z,58.90
2022-10-11T00:31:53.033Z,59.10
2022-10-11T00:35:06.517Z,59.00
2022-10-11T00:38:13.943Z,58.90
2022-10-11T00:41:21.755Z,59.10
2022-10-11T00:44:31.053Z,59.30
2022-10-11T00:47:38.346Z,59.30
2022-10-11T00:50:48.450Z,59.20
2022-10-11T00:53:56.963Z,59.30
2022-10-11T00:57:08.716Z,59.30
2022-10-11T01:00:18.627Z,59.30
2022-10-11T01:03:29.913Z,59.30
2022-10-11T01:06:40.365Z,59.30
2022-10-11T01:09:47.870Z,59.30
2022-10-11T01:13:05.981Z,59.40
2022-10-11T01:16:18.768Z,59.40
2022-10-11T01:20:09.037Z,59.40
2022-10-11T01:23:48.052Z,59.40
2022-10-11T01:27:32.478Z,59.40
2022-10-11T01:30:42.995Z,59.50
2022-10-11T01:33:56.424Z,59.60
2022-10-11T01:37:08.998Z,59.50
2022-10-11T01:40:21.562Z,59.50
2022-10-11T01:43:30.100Z,59.50
2022-10-11T01:46:41.187Z,59.50
2022-10-11T01:49:49.041Z,59.50
2022-10-11T01:52:54.874Z,59.50
2022-10-11T01:56:12.950Z,59.50
2022-10-11T01:59:31.989Z,59.50
2022-10-11T02:03:03.417Z,59.40
2022-10-11T02:06:16.352Z,59.40
2022-10-11T02:09:31.470Z,59.40
2022-10-11T02:12:44.143Z,59.50
2022-10-11T02:15:54.029Z,59.40
2022-10-11T02:19:07.289Z,59.40
2022-10-11T02:22:20.563Z,59.40
2022-10-11T02:25:30.604Z,59.40
2022-10-11T02:28:40.000Z,59.50
2022-10-11T02:31:48.563Z,59.50
2022-10-11T02:35:01.093Z,59.70
2022-10-11T02:38:17.358Z,59.70
2022-10-11T02:41:31.011Z,59.70
2022-10-11T02:44:41.380Z,59.70
2022-10-11T02:47:49.910Z,59.70
2022-10-11T02:51:00.509Z,59.70
2022-10-11T02:54:08.049Z,59.70
2022-10-11T02:57:15.269Z,59.70
2022-10-11T03:00:23.716Z,59.70
2022-10-11T03:03:31.111Z,59.70
2022-10-11T03:06:41.749Z,59.70
2022-10-11T03:09:49.238Z,59.70
2022-10-11T03:12:56.907Z,59.70
2022-10-11T03:16:04.394Z,59.70
2022-10-11T03:19:15.701Z,59.70
2022-10-11T03:22:28.501Z,59.70
2022-10-11T03:25:35.972Z,59.70
2022-10-11T03:28:43.473Z,59.70
2022-10-11T03:31:50.883Z,59.70
2022-10-11T03:34:58.129Z,59.70
2022-10-11T03:38:12.239Z,59.70
2022-10-11T03:41:20.334Z,59.70
2022-10-11T03:44:27.993Z,59.70
2022-10-11T03:47:35.367Z,59.60
2022-10-11T03:50:43.025Z,59.60
2022-10-11T03:53:53.011Z,59.60
2022-10-11T03:57:00.298Z,59.50
2022-10-11T04:00:09.120Z,59.50
2022-10-11T04:03:16.554Z,59.40
2022-10-11T04:06:23.863Z,59.40
2022-10-11T04:09:34.167Z,59.40
2022-10-11T04:12:41.613Z,59.40
2022-10-11T04:15:50.284Z,59.40
2022-10-11T04:18:57.625Z,59.40
2022-10-11T04:22:05.051Z,59.30
2022-10-11T04:25:18.636Z,59.30
2022-10-11T04:28:29.308Z,59.30
2022-10-11T04:31:37.097Z,59.30
2022-10-11T04:34:44.313Z,59.30
2022-10-11T04:37:54.468Z,59.20
2022-10-11T04:41:11.690Z,59.20
2022-10-11T04:44:19.264Z,59.30
2022-10-11T04:47:26.507Z,59.40
2022-10-11T04:50:33.729Z,59.40
2022-10-11T04:53:41.214Z,59.30
2022-10-11T04:56:51.342Z,59.30
2022-10-11T04:59:58.608Z,59.30
2022-10-11T05:03:10.987Z,59.30
2022-10-11T05:06:18.323Z,59.40
2022-10-11T05:09:25.697Z,59.30
2022-10-11T05:12:35.842Z,59.30
2022-10-11T05:15:43.089Z,59.30
2022-10-11T05:18:50.417Z,59.20
2022-10-11T05:21:58.380Z,59.30
2022-10-11T05:25:05.642Z,59.30
2022-10-11T05:28:15.762Z,59.20
2022-10-11T05:31:25.640Z,59.20
2022-10-11T05:34:33.261Z,59.20
2022-10-11T05:37:40.806Z,59.10
2022-10-11T05:40:48.500Z,59.10
2022-10-11T05:43:58.610Z,59.10
2022-10-11T05:47:05.644Z,59.00
2022-10-11T05:50:13.458Z,59.00
2022-10-11T05:53:20.729Z,59.10
2022-10-11T05:56:29.649Z,59.10
2022-10-11T05:59:41.462Z,59.10
2022-10-11T06:02:48.929Z,59.00
2022-10-11T06:05:57.280Z,58.90
2022-10-11T06:09:04.915Z,58.90
2022-10-11T06:12:12.850Z,58.80
2022-10-11T06:15:23.108Z,58.70
2022-10-11T06:18:31.224Z,58.70
2022-10-11T06:21:38.566Z,58.40
2022-10-11T06:24:45.887Z,58.50
2022-10-11T06:27:53.409Z,58.50
2022-10-11T06:31:04.509Z,58.40
2022-10-11T06:34:11.770Z,58.40
2022-10-11T06:37:19.036Z,58.20
2022-10-11T06:40:26.409Z,58.20
2022-10-11T06:43:33.826Z,58.20
2022-10-11T06:46:44.445Z,58.20
2022-10-11T06:49:51.669Z,58.40
2022-10-11T06:52:58.925Z,58.40
2022-10-11T06:56:07.350Z,58.30
2022-10-11T06:59:15.370Z,58.40
2022-10-11T07:02:25.555Z,58.40
2022-10-11T07:05:32.940Z,58.40
2022-10-11T07:08:42.972Z,58.70
2022-10-11T07:11:50.699Z,58.70
2022-10-11T07:14:58.174Z,58.70
2022-10-11T07:18:17.964Z,58.80
2022-10-11T07:21:25.431Z,58.90
2022-10-11T07:24:32.927Z,59.00
2022-10-11T07:27:40.578Z,59.00
2022-10-11T07:30:48.088Z,59.20
2022-10-11T07:33:58.218Z,59.50
2022-10-11T07:37:05.277Z,59.50
2022-10-11T07:40:13.947Z,59.50
2022-10-11T07:43:21.284Z,59.70
2022-10-11T07:46:29.176Z,59.70
2022-10-11T07:49:39.226Z,59.70
2022-10-11T07:52:46.291Z,59.70
2022-10-11T07:55:53.727Z,59.70
2022-10-11T07:59:06.803Z,59.80
2022-10-11T08:02:15.854Z,59.60
2022-10-11T08:05:25.841Z,59.50
2022-10-11T08:08:33.240Z,59.40
2022-10-11T08:11:40.978Z,59.20
2022-10-11T08:14:48.555Z,59.10
2022-10-11T08:17:55.960Z,58.90
2022-10-11T08:21:09.585Z,58.80
2022-10-11T08:24:20.982Z,58.80
2022-10-11T08:27:28.502Z,58.70
2022-10-11T08:30:36.064Z,58.60
2022-10-11T08:33:43.586Z,58.50
2022-10-11T08:36:53.835Z,58.50
2022-10-11T08:40:03.526Z,58.40
2022-10-11T08:43:18.368Z,58.30
2022-10-11T08:46:29.083Z,58.30
2022-10-11T08:49:38.728Z,58.30
2022-10-11T08:52:53.927Z,58.40
2022-10-11T08:56:01.580Z,58.30
2022-10-11T08:59:21.236Z,58.30
2022-10-11T09:03:06.334Z,58.20
2022-10-11T09:06:15.880Z,58.30
2022-10-11T09:09:41.568Z,58.30
2022-10-11T09:12:55.888Z,58.40
2022-10-11T09:16:13.100Z,58.40
2022-10-11T09:19:51.217Z,58.60
2022-10-11T09:23:06.828Z,58.70
2022-10-11T09:26:23.229Z,58.70
2022-10-11T09:29:45.698Z,58.80
2022-10-11T09:33:02.721Z,59.00
2022-10-11T09:36:22.155Z,59.10
2022-10-11T09:39:34.230Z,59.30
2022-10-11T09:42:44.436Z,59.30
2022-10-11T09:45:51.934Z,59.20
2022-10-11T09:49:00.551Z,59.10
2022-10-11T09:52:14.605Z,59.00
2022-10-11T09:55:39.094Z,59.00
2022-10-11T09:58:49.324Z,58.90
2022-10-11T10:02:25.051Z,58.80
2022-10-11T10:05:34.253Z,58.70
2022-10-11T10:08:47.696Z,58.70
2022-10-11T10:11:57.283Z,58.60
2022-10-11T10:15:11.413Z,58.60
2022-10-11T10:18:25.969Z,58.60
2022-10-11T10:21:35.712Z,58.60
2022-10-11T10:24:44.475Z,58.60
2022-10-11T10:28:00.866Z,58.60
2022-10-11T10:31:24.555Z,58.60
2022-10-11T10:34:35.110Z,58.50
2022-10-11T10:37:49.117Z,58.70
2022-10-11T10:40:59.757Z,58.70
2022-10-11T10:44:07.397Z,58.80
2022-10-11T10:47:25.149Z,58.80
2022-10-11T10:50:41.491Z,58.70
2022-10-11T10:53:52.806Z,58.70
2022-10-11T10:57:05.719Z,58.70
2022-10-11T11:00:17.946Z,58.70
2022-10-11T11:03:32.499Z,58.70
2022-10-11T11:06:46.775Z,58.70
2022-10-11T11:10:01.217Z,58.80
2022-10-11T11:13:21.510Z,58.80
2022-10-11T11:16:35.935Z,58.80
2022-10-11T11:19:56.709Z,58.90
2022-10-11T11:23:11.850Z,59.00
2022-10-11T11:26:24.095Z,58.90
2022-10-11T11:29:44.685Z,59.00
2022-10-11T11:33:03.681Z,59.00
2022-10-11T11:36:19.410Z,59.00
2022-10-11T11:39:29.699Z,58.90
2022-10-11T11:42:43.084Z,58.80
2022-10-11T11:45:55.085Z,58.80
2022-10-11T11:49:09.674Z,58.80
2022-10-11T11:52:29.616Z,58.80
2022-10-11T11:55:45.455Z,58.90
2022-10-11T11:58:55.734Z,58.90
2022-10-11T12:02:18.557Z,58.80
2022-10-11T12:05:28.466Z,58.80
2022-10-11T12:08:40.964Z,58.80
2022-10-11T12:11:56.126Z,58.80
2022-10-11T12:15:19.850Z,58.80
2022-10-11T12:18:27.830Z,58.80
2022-10-11T12:21:36.953Z,58.80
2022-10-11T12:24:59.910Z,58.90
2022-10-11T12:28:58.250Z,58.90
2022-10-11T12:32:55.754Z,58.90
2022-10-11T12:36:08.258Z,58.90
2022-10-11T12:39:52.375Z,59.00
2022-10-11T12:43:27.240Z,59.00
2022-10-11T12:47:00.441Z,59.10
2022-10-11T12:50:19.209Z,59.20
2022-10-11T12:53:40.324Z,59.40
2022-10-11T12:56:53.068Z,59.60
2022-10-11T13:00:20.980Z,60.00
2022-10-11T13:03:33.110Z,59.90
2022-10-11T13:06:48.467Z,59.70
2022-10-11T13:09:58.312Z,59.60
2022-10-11T13:13:07.142Z,59.50
2022-10-11T13:16:20.505Z,59.60
2022-10-11T13:19:28.808Z,59.70
2022-10-11T13:22:38.701Z,59.70
2022-10-11T13:25:46.262Z,59.80
2022-10-11T13:28:53.908Z,59.80
2022-10-11T13:32:06.371Z,59.80
2022-10-11T13:35:24.760Z,59.80
2022-10-11T13:38:35.614Z,59.70
2022-10-11T13:41:43.247Z,59.70
2022-10-11T13:44:50.880Z,59.60
2022-10-11T13:48:01.398Z,59.60
2022-10-11T13:51:10.420Z,59.60
2022-10-11T13:54:17.891Z,59.60
2022-10-11T13:57:30.604Z,59.60
2022-10-11T14:00:41.135Z,59.60
2022-10-11T14:03:56.938Z,59.60
2022-10-11T14:07:06.292Z,59.60
2022-10-11T14:10:23.451Z,59.60
2022-10-11T14:13:34.838Z,59.70
2022-10-11T14:16:42.376Z,59.80
2022-10-11T14:20:12.981Z,59.80
2022-10-11T14:23:23.333Z,59.90
2022-10-11T14:26:35.020Z,59.90
2022-10-11T14:29:55.619Z,60.00
2022-10-11T14:33:14.831Z,60.00
2022-10-11T14:36:26.316Z,60.00
2022-10-11T14:39:35.793Z,60.00
2022-10-11T14:42:43.258Z,60.00
2022-10-11T14:45:50.546Z,60.10
2022-10-11T14:48:58.413Z,60.10
2022-10-11T14:52:10.548Z,60.20
2022-10-11T14:55:17.862Z,60.10
2022-10-11T14:58:25.262Z,60.20
2022-10-11T15:01:32.624Z,60.20
2022-10-11T15:04:40.089Z,60.20
2022-10-11T15:07:50.513Z,60.20
2022-10-11T15:10:57.932Z,60.20
2022-10-11T15:14:05.641Z,60.20
2022-10-11T15:17:15.677Z,60.20
2022-10-11T15:20:28.776Z,60.20
2022-10-11T15:23:38.853Z,60.10
2022-10-11T15:26:46.382Z,60.10
2022-10-11T15:29:52.203Z,60.10
2022-10-11T15:32:59.462Z,60.00
2022-10-11T15:36:08.571Z,60.00
2022-10-11T15:39:31.740Z,60.00
2022-10-11T15:42:39.665Z,60.00
2022-10-11T15:45:47.335Z,60.00
2022-10-11T15:48:55.373Z,60.00
2022-10-11T15:52:02.770Z,60.00
2022-10-11T15:55:12.967Z,60.00
2022-10-11T15:58:22.558Z,60.00
2022-10-11T16:01:30.008Z,59.90
2022-10-11T16:04:37.337Z,59.90
2022-10-11T16:07:44.717Z,59.90
2022-10-11T16:10:55.502Z,59.90
2022-10-11T16:14:03.481Z,59.90
2022-10-11T16:17:10.979Z,59.90
2022-10-11T16:20:22.299Z,59.90
2022-10-11T16:23:30.204Z,59.90
2022-10-11T16:26:40.712Z,60.00
2022-10-11T16:29:48.766Z,60.00
2022-10-11T16:32:56.179Z,60.10
2022-10-11T16:36:21.749Z,60.10
2022-10-11T16:39:29.201Z,60.20
2022-10-11T16:42:42.612Z,60.20
2022-10-11T16:45:50.001Z,60.20
2022-10-11T16:48:58.808Z,60.10
2022-10-11T16:52:06.302Z,60.10
2022-10-11T16:55:13.959Z,60.10
2022-10-11T16:58:24.025Z,60.10
2022-10-11T17:01:31.304Z,59.90
2022-10-11T17:04:39.112Z,59.80
2022-10-11T17:07:46.617Z,59.70
2022-10-11T17:10:57.680Z,59.70
2022-10-11T17:14:09.120Z,59.50
2022-10-11T17:17:15.685Z,59.40
2022-10-11T17:20:23.060Z,59.40
2022-10-11T17:23:30.530Z,59.30
2022-10-11T17:26:38.365Z,59.30
2022-10-11T17:29:48.649Z,59.20
2022-10-11T17:32:55.979Z,59.30
2022-10-11T17:36:06.506Z,59.10
2022-10-11T17:39:18.205Z,59.10
2022-10-11T17:42:26.216Z,59.30
2022-10-11T17:45:42.822Z,59.50
2022-10-11T17:48:52.296Z,59.70
2022-10-11T17:52:05.677Z,59.70
2022-10-11T17:55:16.471Z,59.50
2022-10-11T17:58:24.733Z,59.50
2022-10-11T18:01:38.262Z,59.50
2022-10-11T18:04:47.849Z,59.60
2022-10-11T18:07:56.880Z,59.60
2022-10-11T18:11:04.776Z,59.30
2022-10-11T18:14:14.425Z,59.50
2022-10-11T18:17:24.693Z,59.50
2022-10-11T18:20:32.517Z,59.40
2022-10-11T18:23:40.493Z,59.20
2022-10-11T18:26:48.844Z,59.20
2022-10-11T18:29:56.482Z,58.90
2022-10-11T18:33:04.648Z,58.90
2022-10-11T18:36:13.831Z,59.10
2022-10-11T18:39:22.227Z,59.00
2022-10-11T18:42:29.723Z,59.00
2022-10-11T18:45:36.991Z,59.00
2022-10-11T18:48:48.933Z,59.00
2022-10-11T18:51:56.405Z,59.10
2022-10-11T18:55:04.821Z,59.50
2022-10-11T18:58:12.072Z,59.70
2022-10-11T19:01:21.903Z,59.70
2022-10-11T19:04:34.752Z,59.60
2022-10-11T19:07:43.364Z,59.50
2022-10-11T19:10:50.743Z,59.40
2022-10-11T19:13:59.583Z,59.30
2022-10-11T19:17:06.989Z,59.10
2022-10-11T19:20:17.591Z,59.10
2022-10-11T19:23:24.932Z,59.00
2022-10-11T19:26:33.854Z,58.90
2022-10-11T19:29:41.201Z,58.80
2022-10-11T19:32:48.478Z,58.80
2022-10-11T19:36:03.574Z,58.70
2022-10-11T19:39:11.606Z,58.60
2022-10-11T19:42:19.008Z,58.60
2022-10-11T19:45:26.796Z,58.40
2022-10-11T19:48:40.289Z,58.40
2022-10-11T19:51:51.307Z,58.60
2022-10-11T19:54:58.813Z,58.40
2022-10-11T19:58:14.577Z,58.40
2022-10-11T20:01:24.473Z,58.70
2022-10-11T20:04:51.695Z,58.50
2022-10-11T20:08:04.553Z,58.40
2022-10-11T20:11:16.703Z,58.50
2022-10-11T20:14:25.315Z,58.40
2022-10-11T20:17:45.168Z,58.40
2022-10-11T20:20:59.176Z,58.50
2022-10-11T20:24:09.702Z,58.50
2022-10-11T20:27:17.130Z,58.60
2022-10-11T20:30:24.684Z,58.40
2022-10-11T20:33:33.867Z,58.40
2022-10-11T20:36:42.210Z,58.30
2022-10-11T20:39:54.012Z,58.20
2022-10-11T20:43:01.406Z,58.10
2022-10-11T20:46:11.132Z,58.00
2022-10-11T20:49:20.130Z,58.10
2022-10-11T20:52:27.572Z,58.00
2022-10-11T20:55:37.628Z,58.10
2022-10-11T20:58:45.402Z,57.90
2022-10-11T21:01:52.623Z,57.90
2022-10-11T21:04:59.810Z,58.00
2022-10-11T21:08:07.858Z,57.90
2022-10-11T21:11:18.198Z,58.00
2022-10-11T21:14:25.834Z,58.00
2022-10-11T21:17:33.222Z,58.00
2022-10-11T21:20:41.409Z,58.00
2022-10-11T21:23:48.847Z,57.90
2022-10-11T21:27:00.858Z,58.00
2022-10-11T21:30:09.174Z,58.20
2022-10-11T21:33:16.530Z,58.20
2022-10-11T21:36:26.071Z,58.20
2022-10-11T21:39:33.355Z,58.10
2022-10-11T21:42:43.639Z,58.20
2022-10-11T21:45:50.854Z,58.20
2022-10-11T21:48:58.796Z,58.20
2022-10-11T21:52:07.481Z,58.20
2022-10-11T21:55:15.003Z,58.20
2022-10-11T21:58:25.104Z,58.20
2022-10-11T22:01:33.927Z,58.20
2022-10-11T22:04:41.234Z,58.20
2022-10-11T22:07:48.801Z,58.20
2022-10-11T22:11:00.949Z,58.20
2022-10-11T22:14:12.118Z,58.20
2022-10-11T22:17:19.680Z,58.20
2022-10-11T22:20:27.108Z,58.20
2022-10-11T22:23:34.733Z,58.10
2022-10-11T22:26:42.311Z,58.20
2022-10-11T22:29:52.359Z,58.10
2022-10-11T22:33:00.012Z,58.00
2022-10-11T22:36:09.075Z,58.00
2022-10-11T22:39:16.470Z,57.90
2022-10-11T22:42:27.534Z,57.90
2022-10-11T22:45:38.035Z,57.90
2022-10-11T22:48:45.427Z,57.80
2022-10-11T22:51:53.070Z,57.80
2022-10-11T22:55:00.334Z,57.80
2022-10-11T22:58:07.644Z,57.80
2022-10-11T23:01:19.093Z,57.70
2022-10-11T23:04:26.337Z,57.70
2022-10-11T23:07:33.904Z,57.70
2022-10-11T23:10:41.909Z,57.70
2022-10-11T23:13:47.519Z,57.50
2022-10-11T23:16:57.894Z,57.50
2022-10-11T23:20:05.413Z,57.40
2022-10-11T23:23:12.632Z,57.40
2022-10-11T23:26:20.358Z,57.30
2022-10-11T23:29:27.936Z,57.20
2022-10-11T23:32:39.805Z,57.20
2022-10-11T23:35:45.019Z,57.10
2022-10-11T23:38:54.271Z,57.10
2022-10-11T23:42:01.672Z,57.00
2022-10-11T23:45:10.029Z,56.90
2022-10-11T23:48:20.176Z,56.90
2022-10-11T23:51:27.565Z,56.90
2022-10-11T23:54:32.915Z,56.90
2022-10-11T23:57:40.511Z,56.90
